Terminal Aerodrome Forecast
Issued by NWS

Home | Current Version | Previous Version | Text Only | Print | Product List | Glossary On
Versions: 1 2 3 4 5 6 7 8 9 10 11 12
000
FTUS43 KTOP 282300
TAFFOE
TAF
KFOE 282322Z 2900/2924 16004KT P6SM FEW150 SCT200
     FM291200 09005KT P6SM SCT150
     FM291700 04010KT P6SM SCT035 OVC120=

USA.gov is the U.S. government's official web portal to all federal, state and local government web resources and services.